createdAt,value
2022-12-25T00:00:20.261Z,5.67
2022-12-25T00:02:47.498Z,5.68
2022-12-25T00:05:13.873Z,5.67
2022-12-25T00:07:40.204Z,5.68
2022-12-25T00:10:06.750Z,5.68
2022-12-25T00:12:33.315Z,5.70
2022-12-25T00:14:59.639Z,5.68
2022-12-25T00:17:26.242Z,5.68
2022-12-25T00:19:52.574Z,5.70
2022-12-25T00:22:18.901Z,5.67
2022-12-25T00:24:45.242Z,5.68
2022-12-25T00:27:11.593Z,5.67
2022-12-25T00:29:38.136Z,5.68
2022-12-25T00:32:04.487Z,5.67
2022-12-25T00:34:31.017Z,5.67
2022-12-25T00:36:57.327Z,5.68
2022-12-25T00:39:23.667Z,5.68
2022-12-25T00:41:50.219Z,5.68
2022-12-25T00:44:16.570Z,5.68
2022-12-25T00:46:43.205Z,5.68
2022-12-25T00:49:09.603Z,5.67
2022-12-25T00:51:35.956Z,5.71
2022-12-25T00:54:02.271Z,5.68
2022-12-25T00:56:28.812Z,5.70
2022-12-25T00:58:55.137Z,5.70
2022-12-25T01:01:21.854Z,5.70
2022-12-25T01:03:48.521Z,5.68
2022-12-25T01:06:14.845Z,5.71
2022-12-25T01:08:41.200Z,5.70
2022-12-25T01:11:07.538Z,5.67
2022-12-25T01:13:34.097Z,5.70
2022-12-25T01:16:00.469Z,5.74
2022-12-25T01:18:27.030Z,5.68
2022-12-25T01:20:53.395Z,5.70
2022-12-25T01:23:19.761Z,5.70
2022-12-25T01:25:46.084Z,5.71
2022-12-25T01:28:12.418Z,5.70
2022-12-25T01:30:38.969Z,5.68
2022-12-25T01:33:05.328Z,5.70
2022-12-25T01:35:31.684Z,5.71
2022-12-25T01:37:58.264Z,5.67
2022-12-25T01:40:24.616Z,5.67
2022-12-25T01:42:50.958Z,5.71
2022-12-25T01:45:17.515Z,5.71
2022-12-25T01:47:44.064Z,5.71
2022-12-25T01:50:10.405Z,5.73
2022-12-25T01:52:36.948Z,5.70
2022-12-25T01:55:03.307Z,5.73
2022-12-25T01:57:29.650Z,5.73
2022-12-25T01:59:55.968Z,5.71
2022-12-25T02:02:22.590Z,5.71
2022-12-25T02:04:49.309Z,5.73
2022-12-25T02:07:15.647Z,5.73
2022-12-25T02:09:41.963Z,5.71
2022-12-25T02:12:08.315Z,5.73
2022-12-25T02:14:35.881Z,5.71
2022-12-25T02:17:02.270Z,5.71
2022-12-25T02:19:28.652Z,5.71
2022-12-25T02:21:54.990Z,5.73
2022-12-25T02:24:21.523Z,5.71
2022-12-25T02:26:47.846Z,5.71
2022-12-25T02:29:14.402Z,5.71
2022-12-25T02:31:41.015Z,5.73
2022-12-25T02:34:07.364Z,5.73
2022-12-25T02:36:33.931Z,5.71
2022-12-25T02:39:00.307Z,5.73
2022-12-25T02:41:26.638Z,5.71
2022-12-25T02:43:52.967Z,5.74
2022-12-25T02:46:19.371Z,5.73
2022-12-25T02:48:45.746Z,5.73
2022-12-25T02:51:12.080Z,5.71
2022-12-25T02:53:38.661Z,5.71
2022-12-25T02:56:05.224Z,5.70
2022-12-25T02:58:31.598Z,5.70
2022-12-25T03:00:57.960Z,5.73
2022-12-25T03:03:24.420Z,5.73
2022-12-25T03:05:50.809Z,5.71
2022-12-25T03:08:17.359Z,5.73
2022-12-25T03:10:43.703Z,5.71
2022-12-25T03:13:10.249Z,5.74
2022-12-25T03:15:36.811Z,5.73
2022-12-25T03:18:03.340Z,5.73
2022-12-25T03:20:29.693Z,5.73
2022-12-25T03:22:56.126Z,5.73
2022-12-25T03:25:22.492Z,5.73
2022-12-25T03:27:48.849Z,5.71
2022-12-25T03:30:15.175Z,5.73
2022-12-25T03:32:41.716Z,5.74
2022-12-25T03:35:08.073Z,5.74
2022-12-25T03:37:34.393Z,5.73
2022-12-25T03:40:00.928Z,5.74
2022-12-25T03:42:27.245Z,5.71
2022-12-25T03:44:53.644Z,5.73
2022-12-25T03:47:20.253Z,5.73
2022-12-25T03:49:46.576Z,5.74
2022-12-25T03:52:12.914Z,5.74
2022-12-25T03:54:39.247Z,5.74
2022-12-25T03:57:05.580Z,5.74
2022-12-25T03:59:31.879Z,5.74
2022-12-25T04:01:58.373Z,5.75
2022-12-25T04:04:24.773Z,5.73
2022-12-25T04:06:51.302Z,5.77
2022-12-25T04:09:17.612Z,5.73
2022-12-25T04:11:43.931Z,5.73
2022-12-25T04:14:10.473Z,5.73
2022-12-25T04:16:36.805Z,5.74
2022-12-25T04:19:03.151Z,5.73
2022-12-25T04:21:29.494Z,5.74
2022-12-25T04:23:55.843Z,5.74
2022-12-25T04:26:22.182Z,5.73
2022-12-25T04:28:48.754Z,5.75
2022-12-25T04:31:15.163Z,5.75
2022-12-25T04:33:41.564Z,5.77
2022-12-25T04:36:07.884Z,5.75
2022-12-25T04:38:34.230Z,5.74
2022-12-25T04:41:00.586Z,5.75
2022-12-25T04:43:26.903Z,5.75
2022-12-25T04:45:53.291Z,5.74
2022-12-25T04:48:20.128Z,5.77
2022-12-25T04:50:46.463Z,5.75
2022-12-25T04:53:12.784Z,5.74
2022-12-25T04:55:39.108Z,5.74
2022-12-25T04:58:05.860Z,5.75
2022-12-25T05:00:32.203Z,5.75
2022-12-25T05:02:58.720Z,5.74
2022-12-25T05:05:25.297Z,5.74
2022-12-25T05:07:51.615Z,5.75
2022-12-25T05:10:17.929Z,5.75
2022-12-25T05:12:44.494Z,5.77
2022-12-25T05:15:10.828Z,5.73
2022-12-25T05:17:37.162Z,5.75
2022-12-25T05:20:03.498Z,5.75
2022-12-25T05:22:29.840Z,5.73
2022-12-25T05:24:56.158Z,5.75
2022-12-25T05:27:22.512Z,5.75
2022-12-25T05:29:49.071Z,5.75
2022-12-25T05:32:15.418Z,5.77
2022-12-25T05:34:41.751Z,5.77
2022-12-25T05:37:09.066Z,5.75
2022-12-25T05:39:35.444Z,5.75
2022-12-25T05:42:01.800Z,5.73
2022-12-25T05:44:28.300Z,5.75
2022-12-25T05:46:54.658Z,5.77
2022-12-25T05:49:21.222Z,5.75
2022-12-25T05:51:47.566Z,5.83
2022-12-25T05:54:13.925Z,6.02
2022-12-25T05:56:40.284Z,6.07
2022-12-25T05:59:06.638Z,6.14
2022-12-25T06:01:33.097Z,6.22
2022-12-25T06:03:59.761Z,6.25
2022-12-25T06:06:26.138Z,6.29
2022-12-25T06:08:52.681Z,6.25
2022-12-25T06:11:19.049Z,6.21
2022-12-25T06:13:45.410Z,6.25
2022-12-25T06:16:11.794Z,6.12
2022-12-25T06:18:38.186Z,6.07
2022-12-25T06:21:04.551Z,6.02
2022-12-25T06:23:30.940Z,6.08
2022-12-25T06:25:57.292Z,6.21
2022-12-25T06:28:23.651Z,6.14
2022-12-25T06:30:49.997Z,6.04
2022-12-25T06:33:16.312Z,6.02
2022-12-25T06:35:42.856Z,5.98
2022-12-25T06:38:09.208Z,5.97
2022-12-25T06:40:35.559Z,5.97
2022-12-25T06:43:02.114Z,5.94
2022-12-25T06:45:28.497Z,5.93
2022-12-25T06:47:54.857Z,5.90
2022-12-25T06:50:21.183Z,5.90
2022-12-25T06:52:47.737Z,5.90
2022-12-25T06:55:14.061Z,5.90
2022-12-25T06:57:40.392Z,5.88
2022-12-25T07:00:06.924Z,5.88
2022-12-25T07:02:33.480Z,5.87
2022-12-25T07:04:59.890Z,5.88
2022-12-25T07:07:26.230Z,5.88
2022-12-25T07:09:52.624Z,5.88
2022-12-25T07:12:18.987Z,5.86
2022-12-25T07:14:45.322Z,5.86
2022-12-25T07:17:11.665Z,5.88
2022-12-25T07:19:44.441Z,5.86
2022-12-25T07:22:11.447Z,5.87
2022-12-25T07:24:37.784Z,5.86
2022-12-25T07:27:04.125Z,5.86
2022-12-25T07:29:30.469Z,5.84
2022-12-25T07:31:57.119Z,5.86
2022-12-25T07:34:23.513Z,5.87
2022-12-25T07:36:49.873Z,5.84
2022-12-25T07:39:16.299Z,5.84
2022-12-25T07:41:42.675Z,5.84
2022-12-25T07:44:09.241Z,5.83
2022-12-25T07:46:35.810Z,5.84
2022-12-25T07:49:02.150Z,5.84
2022-12-25T07:51:28.494Z,5.84
2022-12-25T07:53:54.838Z,5.86
2022-12-25T07:56:21.176Z,5.84
2022-12-25T07:58:47.721Z,6.01
2022-12-25T08:01:14.202Z,5.97
2022-12-25T08:03:40.733Z,5.98
2022-12-25T08:06:07.331Z,6.02
2022-12-25T08:08:33.878Z,6.01
2022-12-25T08:11:00.233Z,5.97
2022-12-25T08:13:26.806Z,5.93
2022-12-25T08:15:53.141Z,5.99
2022-12-25T08:18:22.201Z,6.09
2022-12-25T08:20:50.953Z,6.21
2022-12-25T08:23:17.289Z,6.18
2022-12-25T08:25:43.628Z,6.07
2022-12-25T08:28:09.942Z,5.99
2022-12-25T08:30:36.547Z,5.99
2022-12-25T08:33:02.934Z,5.95
2022-12-25T08:35:29.295Z,5.94
2022-12-25T08:37:55.668Z,5.94
2022-12-25T08:40:22.019Z,5.90
2022-12-25T08:42:48.567Z,5.94
2022-12-25T08:45:14.885Z,5.91
2022-12-25T08:47:41.419Z,5.90
2022-12-25T08:50:07.781Z,5.90
2022-12-25T08:52:34.584Z,5.90
2022-12-25T08:55:00.905Z,5.93
2022-12-25T08:57:27.242Z,5.90
2022-12-25T08:59:53.583Z,5.91
2022-12-25T09:02:20.139Z,5.90
2022-12-25T09:04:46.623Z,5.88
2022-12-25T09:07:13.190Z,5.91
2022-12-25T09:09:39.548Z,5.91
2022-12-25T09:12:05.903Z,5.88
2022-12-25T09:14:32.249Z,5.87
2022-12-25T09:16:58.608Z,5.91
2022-12-25T09:19:24.933Z,5.90
2022-12-25T09:21:51.253Z,5.91
2022-12-25T09:24:17.563Z,5.95
2022-12-25T09:26:44.345Z,5.97
2022-12-25T09:29:10.713Z,5.93
2022-12-25T09:31:37.055Z,5.97
2022-12-25T09:34:03.434Z,5.97
2022-12-25T09:36:29.787Z,5.94
2022-12-25T09:38:56.121Z,5.93
2022-12-25T09:41:22.472Z,5.95
2022-12-25T09:43:48.803Z,5.93
2022-12-25T09:46:15.193Z,5.91
2022-12-25T09:48:41.606Z,5.90
2022-12-25T09:51:07.954Z,5.94
2022-12-25T09:53:34.291Z,5.90
2022-12-25T09:56:00.857Z,5.91
2022-12-25T09:58:27.193Z,5.90
2022-12-25T10:00:53.540Z,5.91
2022-12-25T10:03:19.991Z,5.91
2022-12-25T10:05:46.400Z,5.90
2022-12-25T10:08:12.759Z,5.93
2022-12-25T10:10:39.904Z,5.91
2022-12-25T10:13:06.250Z,5.91
2022-12-25T10:15:32.660Z,5.91
2022-12-25T10:17:59.286Z,5.91
2022-12-25T10:20:25.816Z,5.93
2022-12-25T10:22:52.369Z,5.94
2022-12-25T10:25:18.711Z,5.90
2022-12-25T10:27:45.043Z,5.90
2022-12-25T10:30:11.593Z,5.91
2022-12-25T10:32:37.929Z,5.94
2022-12-25T10:35:04.456Z,5.91
2022-12-25T10:37:30.796Z,5.93
2022-12-25T10:39:57.157Z,5.93
2022-12-25T10:42:23.506Z,5.94
2022-12-25T10:44:49.848Z,5.91
2022-12-25T10:47:16.419Z,5.94
2022-12-25T10:49:43.416Z,5.94
2022-12-25T10:52:09.746Z,5.91
2022-12-25T10:54:36.119Z,5.93
2022-12-25T10:57:02.461Z,5.94
2022-12-25T10:59:28.992Z,5.97
2022-12-25T11:01:55.823Z,5.95
2022-12-25T11:04:22.293Z,5.95
2022-12-25T11:06:48.648Z,5.97
2022-12-25T11:09:14.998Z,5.98
2022-12-25T11:11:41.354Z,5.98
2022-12-25T11:14:07.698Z,5.98
2022-12-25T11:16:34.166Z,5.97
2022-12-25T11:19:00.547Z,5.97
2022-12-25T11:21:26.913Z,5.99
2022-12-25T11:23:53.279Z,6.01
2022-12-25T11:26:19.607Z,6.01
2022-12-25T11:28:45.958Z,5.99
2022-12-25T11:31:12.366Z,6.02
2022-12-25T11:33:38.710Z,6.04
2022-12-25T11:36:05.040Z,6.05
2022-12-25T11:38:31.533Z,6.26
2022-12-25T11:40:57.923Z,6.46
2022-12-25T11:43:24.482Z,6.39
2022-12-25T11:45:50.809Z,6.29
2022-12-25T11:48:17.137Z,6.25
2022-12-25T11:50:43.473Z,6.19
2022-12-25T11:53:09.819Z,6.16
2022-12-25T11:55:36.177Z,6.15
2022-12-25T11:58:02.509Z,6.16
2022-12-25T12:00:28.834Z,6.15
2022-12-25T12:02:55.352Z,6.16
2022-12-25T12:05:21.849Z,6.14
2022-12-25T12:07:48.193Z,6.15
2022-12-25T12:10:14.548Z,6.14
2022-12-25T12:12:48.338Z,6.18
2022-12-25T12:15:15.303Z,6.16
2022-12-25T12:17:41.623Z,6.16
2022-12-25T12:20:07.991Z,6.15
2022-12-25T12:22:34.362Z,6.18
2022-12-25T12:25:00.712Z,6.19
2022-12-25T12:27:27.263Z,6.18
2022-12-25T12:29:53.617Z,6.15
2022-12-25T12:32:19.967Z,6.18
2022-12-25T12:34:46.321Z,6.18
2022-12-25T12:37:12.688Z,6.22
2022-12-25T12:39:39.040Z,6.22
2022-12-25T12:42:05.400Z,6.19
2022-12-25T12:44:31.792Z,6.21
2022-12-25T12:46:58.384Z,6.21
2022-12-25T12:49:24.785Z,6.22
2022-12-25T12:51:51.140Z,6.22
2022-12-25T12:54:17.474Z,6.22
2022-12-25T12:56:43.813Z,6.21
2022-12-25T12:59:10.165Z,6.25
2022-12-25T13:01:36.830Z,6.24
2022-12-25T13:04:03.270Z,6.24
2022-12-25T13:06:29.639Z,6.24
2022-12-25T13:08:55.987Z,6.25
2022-12-25T13:11:22.342Z,6.26
2022-12-25T13:13:48.706Z,6.26
2022-12-25T13:16:15.121Z,6.24
2022-12-25T13:18:41.464Z,6.24
2022-12-25T13:21:07.790Z,6.29
2022-12-25T13:23:34.117Z,6.29
2022-12-25T13:26:00.681Z,6.30
2022-12-25T13:28:26.999Z,6.30
2022-12-25T13:30:53.354Z,6.30
2022-12-25T13:33:19.786Z,6.28
2022-12-25T13:35:46.166Z,6.29
2022-12-25T13:38:12.538Z,6.29
2022-12-25T13:40:38.876Z,6.30
2022-12-25T13:43:05.521Z,6.30
2022-12-25T13:45:31.939Z,6.30
2022-12-25T13:47:58.348Z,6.30
2022-12-25T13:50:24.693Z,6.30
2022-12-25T13:52:51.035Z,6.32
2022-12-25T13:55:17.363Z,6.29
2022-12-25T13:57:43.722Z,6.30
2022-12-25T14:00:10.082Z,6.30
2022-12-25T14:02:36.505Z,6.30
2022-12-25T14:05:03.145Z,6.29
2022-12-25T14:07:29.470Z,6.30
2022-12-25T14:09:55.785Z,6.32
2022-12-25T14:12:22.126Z,6.30
2022-12-25T14:14:48.676Z,6.32
2022-12-25T14:17:14.995Z,6.29
2022-12-25T14:19:41.337Z,6.28
2022-12-25T14:22:07.652Z,6.53
2022-12-25T14:24:33.999Z,6.49
2022-12-25T14:27:00.752Z,6.46
2022-12-25T14:29:28.595Z,6.49
2022-12-25T14:31:55.255Z,6.52
2022-12-25T14:34:21.814Z,6.49
2022-12-25T14:36:48.382Z,6.58
2022-12-25T14:39:14.726Z,6.60
2022-12-25T14:41:41.061Z,6.53
2022-12-25T14:44:07.390Z,6.50
2022-12-25T14:46:34.074Z,6.53
2022-12-25T14:49:00.479Z,6.64
2022-12-25T14:51:27.308Z,6.53
2022-12-25T14:53:53.641Z,6.49
2022-12-25T14:56:20.232Z,6.45
2022-12-25T14:58:46.654Z,6.43
2022-12-25T15:01:13.013Z,6.42
2022-12-25T15:03:39.403Z,6.40
2022-12-25T15:06:06.008Z,6.37
2022-12-25T15:08:32.376Z,6.37
2022-12-25T15:11:02.259Z,6.35
2022-12-25T15:13:29.332Z,6.36
2022-12-25T15:15:55.950Z,6.33
2022-12-25T15:18:22.360Z,6.35
2022-12-25T15:20:48.700Z,6.35
2022-12-25T15:23:19.710Z,6.32
2022-12-25T15:25:46.514Z,6.32
2022-12-25T15:28:13.201Z,6.33
2022-12-25T15:30:39.748Z,6.32
2022-12-25T15:33:06.379Z,6.35
2022-12-25T15:35:32.730Z,6.32
2022-12-25T15:37:59.070Z,6.32
2022-12-25T15:40:25.467Z,6.30
2022-12-25T15:42:52.010Z,6.30
2022-12-25T15:45:18.779Z,6.33
2022-12-25T15:47:45.268Z,6.36
2022-12-25T15:50:11.600Z,6.32
2022-12-25T15:52:37.919Z,6.33
2022-12-25T15:55:04.281Z,6.43
2022-12-25T15:57:30.621Z,6.43
2022-12-25T15:59:57.165Z,6.42
2022-12-25T16:02:23.603Z,6.36
2022-12-25T16:04:50.017Z,6.40
2022-12-25T16:07:16.359Z,6.42
2022-12-25T16:09:42.716Z,6.47
2022-12-25T16:12:11.909Z,6.46
2022-12-25T16:14:41.047Z,6.42
2022-12-25T16:17:07.448Z,6.43
2022-12-25T16:19:37.124Z,6.50
2022-12-25T16:22:03.451Z,6.56
2022-12-25T16:24:29.822Z,6.52
2022-12-25T16:26:56.470Z,6.49
2022-12-25T16:29:22.808Z,6.46
2022-12-25T16:31:51.421Z,6.42
2022-12-25T16:34:17.760Z,6.40
2022-12-25T16:36:44.110Z,6.39
2022-12-25T16:39:10.463Z,6.39
2022-12-25T16:41:36.808Z,6.36
2022-12-25T16:44:03.126Z,6.37
2022-12-25T16:46:29.455Z,6.37
2022-12-25T16:48:55.790Z,6.36
2022-12-25T16:51:22.744Z,6.37
2022-12-25T16:53:49.100Z,6.36
2022-12-25T16:56:15.690Z,6.53
2022-12-25T16:58:42.026Z,6.50
2022-12-25T17:01:08.371Z,6.47
2022-12-25T17:03:34.856Z,6.45
2022-12-25T17:06:01.539Z,6.40
2022-12-25T17:08:27.884Z,6.40
2022-12-25T17:10:54.436Z,6.39
2022-12-25T17:13:20.754Z,6.37
2022-12-25T17:15:50.586Z,6.37
2022-12-25T17:18:17.281Z,6.36
2022-12-25T17:20:43.605Z,6.40
2022-12-25T17:23:10.222Z,6.37
2022-12-25T17:25:36.563Z,6.37
2022-12-25T17:28:03.140Z,6.40
2022-12-25T17:30:29.548Z,6.37
2022-12-25T17:32:55.989Z,6.35
2022-12-25T17:35:22.629Z,6.37
2022-12-25T17:37:48.940Z,6.39
2022-12-25T17:40:15.480Z,6.40
2022-12-25T17:42:41.937Z,6.43
2022-12-25T17:45:08.499Z,6.42
2022-12-25T17:47:34.851Z,6.40
2022-12-25T17:50:01.213Z,6.40
2022-12-25T17:52:27.608Z,6.39
2022-12-25T17:54:53.977Z,6.37
2022-12-25T17:57:20.305Z,6.39
2022-12-25T17:59:46.620Z,6.39
2022-12-25T18:02:13.249Z,6.39
2022-12-25T18:04:39.615Z,6.36
2022-12-25T18:07:05.953Z,6.39
2022-12-25T18:09:32.316Z,6.37
2022-12-25T18:11:58.671Z,6.36
2022-12-25T18:14:25.006Z,6.37
2022-12-25T18:16:51.381Z,6.37
2022-12-25T18:19:17.819Z,6.39
2022-12-25T18:21:44.187Z,6.39
2022-12-25T18:24:10.611Z,6.37
2022-12-25T18:26:36.967Z,6.36
2022-12-25T18:29:03.292Z,6.37
2022-12-25T18:31:29.911Z,6.36
2022-12-25T18:33:56.592Z,6.37
2022-12-25T18:36:23.156Z,6.36
2022-12-25T18:38:49.610Z,6.36
2022-12-25T18:41:16.263Z,6.36
2022-12-25T18:43:52.402Z,6.37
2022-12-25T18:46:21.733Z,6.35
2022-12-25T18:48:48.104Z,6.35
2022-12-25T18:51:14.477Z,6.36
2022-12-25T18:53:40.888Z,6.36
2022-12-25T18:56:07.408Z,6.36
2022-12-25T18:58:33.776Z,6.35
2022-12-25T19:01:00.295Z,6.35
2022-12-25T19:03:26.676Z,6.36
2022-12-25T19:05:53.124Z,6.35
2022-12-25T19:08:19.693Z,6.37
2022-12-25T19:10:46.088Z,6.37
2022-12-25T19:13:12.414Z,6.33
2022-12-25T19:15:38.741Z,6.33
2022-12-25T19:18:05.305Z,6.35
2022-12-25T19:20:31.636Z,6.33
2022-12-25T19:22:58.184Z,6.35
2022-12-25T19:25:24.521Z,6.36
2022-12-25T19:27:50.866Z,6.35
2022-12-25T19:30:17.401Z,6.37
2022-12-25T19:32:43.718Z,6.35
2022-12-25T19:35:10.051Z,6.35
2022-12-25T19:37:36.389Z,6.36
2022-12-25T19:40:02.734Z,6.33
2022-12-25T19:42:29.084Z,6.36
2022-12-25T19:44:55.435Z,6.36
2022-12-25T19:47:21.787Z,6.36
2022-12-25T19:49:52.863Z,6.35
2022-12-25T19:52:19.580Z,6.35
2022-12-25T19:54:45.930Z,6.36
2022-12-25T19:57:12.285Z,6.36
2022-12-25T19:59:38.636Z,6.35
2022-12-25T20:02:05.134Z,6.33
2022-12-25T20:04:31.636Z,6.36
2022-12-25T20:06:57.984Z,6.36
2022-12-25T20:09:24.325Z,6.35
2022-12-25T20:11:50.670Z,6.33
2022-12-25T20:14:17.019Z,6.36
2022-12-25T20:16:44.049Z,6.33
2022-12-25T20:19:10.630Z,6.33
2022-12-25T20:21:36.975Z,6.35
2022-12-25T20:24:03.535Z,6.35
2022-12-25T20:26:30.089Z,6.33
2022-12-25T20:28:56.437Z,6.53
2022-12-25T20:31:23.013Z,6.56
2022-12-25T20:33:49.380Z,6.63
2022-12-25T20:36:15.718Z,6.58
2022-12-25T20:38:42.048Z,6.52
2022-12-25T20:43:55.657Z,6.64
2022-12-25T20:46:22.064Z,6.58
2022-12-25T20:48:48.466Z,6.54
2022-12-25T20:51:15.044Z,6.53
2022-12-25T20:53:41.367Z,6.50
2022-12-25T20:56:07.679Z,6.42
2022-12-25T20:58:34.005Z,6.69
2022-12-25T21:01:00.531Z,6.58
2022-12-25T21:03:27.032Z,6.46
2022-12-25T21:05:53.485Z,6.40
2022-12-25T21:08:20.065Z,6.47
2022-12-25T21:10:46.602Z,6.83
2022-12-25T21:13:12.943Z,6.52
2022-12-25T21:15:39.278Z,6.29
2022-12-25T21:18:05.597Z,6.16
2022-12-25T21:20:31.928Z,6.28
2022-12-25T21:22:58.473Z,6.43
2022-12-25T21:25:24.786Z,6.42
2022-12-25T21:27:51.154Z,6.39
2022-12-25T21:30:17.722Z,6.40
2022-12-25T21:32:44.071Z,6.37
2022-12-25T21:35:10.411Z,6.37
2022-12-25T21:37:36.762Z,6.37
2022-12-25T21:40:03.108Z,6.39
2022-12-25T21:42:29.461Z,6.39
2022-12-25T21:44:55.791Z,6.36
2022-12-25T21:47:22.327Z,6.37
2022-12-25T21:49:48.660Z,6.33
2022-12-25T21:52:14.980Z,6.32
2022-12-25T21:54:41.320Z,6.33
2022-12-25T21:57:07.648Z,6.36
2022-12-25T21:59:33.988Z,6.33
2022-12-25T22:02:00.384Z,6.35
2022-12-25T22:04:27.060Z,6.30
2022-12-25T22:06:53.402Z,6.35
2022-12-25T22:09:19.930Z,6.33
2022-12-25T22:11:46.276Z,6.30
2022-12-25T22:14:12.622Z,6.32
2022-12-25T22:16:39.158Z,6.32
2022-12-25T22:19:05.491Z,6.33
2022-12-25T22:21:31.822Z,6.32
2022-12-25T22:23:58.214Z,6.32
2022-12-25T22:26:24.576Z,6.32
2022-12-25T22:28:51.122Z,6.33
2022-12-25T22:31:17.492Z,6.28
2022-12-25T22:33:43.868Z,6.32
2022-12-25T22:36:10.413Z,6.29
2022-12-25T22:38:36.734Z,6.30
2022-12-25T22:41:03.062Z,6.29
2022-12-25T22:44:06.283Z,6.29
2022-12-25T22:46:15.724Z,6.30
2022-12-25T22:48:42.060Z,6.28
2022-12-25T22:51:08.416Z,6.30
2022-12-25T22:53:34.766Z,6.30
2022-12-25T22:56:01.309Z,6.28
2022-12-25T22:58:27.661Z,6.29
2022-12-25T23:00:53.995Z,6.28
2022-12-25T23:03:20.452Z,6.28
2022-12-25T23:05:46.886Z,6.28
2022-12-25T23:08:13.222Z,6.26
2022-12-25T23:10:39.573Z,6.30
2022-12-25T23:13:05.899Z,6.28
2022-12-25T23:15:32.538Z,6.29
2022-12-25T23:17:58.953Z,6.28
2022-12-25T23:20:25.498Z,6.28
2022-12-25T23:22:51.838Z,6.29
2022-12-25T23:25:18.195Z,6.30
2022-12-25T23:27:44.561Z,6.29
2022-12-25T23:30:10.912Z,6.28
2022-12-25T23:32:37.253Z,6.29
2022-12-25T23:35:03.599Z,6.30
2022-12-25T23:37:29.944Z,6.28
2022-12-25T23:39:57.451Z,6.28
2022-12-25T23:42:23.788Z,6.29
2022-12-25T23:44:50.116Z,6.30
2022-12-25T23:47:16.490Z,6.29
2022-12-25T23:49:42.839Z,6.28
2022-12-25T23:52:09.170Z,6.29
2022-12-25T23:54:35.723Z,6.29
2022-12-25T23:57:02.066Z,6.30
2022-12-25T23:59:28.413Z,6.32
